Time;durP1;ratioP1;P1;durP2;ratioP2;P2;SDS_P1;SDS_P2;PMS_P1;PMS_P2;Temp;Humidity;BMP_temperature;BMP_pressure;BME280_temperature;BME280_humidity;BME280_pressure;Samples;Min_cycle;Max_cycle;Signal;HPM_P1;HPM_P2
2022/03/05 00:01:46;;;;;;;14.15;2.70;;;;;;;3.06;44.03;98819.16;4998829;28;20065;-73
2022/03/05 00:04:13;;;;;;;13.90;2.43;;;;;;;2.95;44.05;98796.56;5007536;28;20042;-73
2022/03/05 00:06:39;;;;;;;11.05;2.75;;;;;;;2.93;44.15;98806.78;5002961;28;20316;-73
2022/03/05 00:09:05;;;;;;;11.35;2.80;;;;;;;2.79;44.45;98810.91;5004696;28;20053;-73
2022/03/05 00:11:32;;;;;;;14.25;3.50;;;;;;;2.84;44.53;98808.31;5005140;28;20048;-72
2022/03/05 00:13:59;;;;;;;10.15;2.63;;;;;;;2.86;44.64;98808.03;5006936;28;20057;-74
2022/03/05 00:16:25;;;;;;;11.35;3.03;;;;;;;2.91;44.54;98802.72;5007640;28;20148;-73
2022/03/05 00:18:52;;;;;;;8.20;2.50;;;;;;;2.95;44.56;98810.06;5003184;28;20470;-74
2022/03/05 00:21:19;;;;;;;8.10;2.35;;;;;;;2.88;44.95;98801.34;4998468;28;20141;-74
2022/03/05 00:23:45;;;;;;;8.80;2.75;;;;;;;2.90;44.98;98801.09;5010911;28;20100;-74
2022/03/05 00:26:13;;;;;;;9.55;2.80;;;;;;;2.83;45.12;98796.66;4992837;28;20038;-75
2022/03/05 00:28:39;;;;;;;;;;;;;;;2.82;45.21;98796.94;4992254;28;20081;-74
2022/03/05 00:31:05;;;;;;;6.82;2.20;;;;;;;2.77;45.13;98792.28;5010841;28;19925;-74
2022/03/05 00:33:31;;;;;;;10.07;2.90;;;;;;;2.78;45.30;98788.50;5004282;28;20049;-74
2022/03/05 00:35:58;;;;;;;13.38;2.92;;;;;;;2.87;44.87;98774.56;4997842;28;20057;-74
2022/03/05 00:38:24;;;;;;;7.47;2.80;;;;;;;2.96;44.83;98800.09;4981974;28;20109;-74
2022/03/05 00:40:51;;;;;;;10.73;3.00;;;;;;;2.88;45.04;98790.53;5009906;28;20054;-74
2022/03/05 00:43:17;;;;;;;14.32;3.30;;;;;;;2.84;45.44;98794.81;5009720;28;20069;-74
2022/03/05 00:45:46;;;;;;;8.57;2.80;;;;;;;2.86;45.57;98798.06;5011028;28;20054;-73
2022/03/05 00:48:13;;;;;;;8.77;3.20;;;;;;;2.86;45.73;98800.78;4990335;28;20116;-73
2022/03/05 00:50:39;;;;;;;10.98;3.15;;;;;;;2.84;45.78;98806.41;5010807;28;20149;-73
2022/03/05 00:53:06;;;;;;;11.57;3.05;;;;;;;2.83;45.93;98807.47;5009950;28;20046;-74
2022/03/05 00:55:33;;;;;;;10.93;3.50;;;;;;;2.74;46.18;98798.19;5009815;28;20050;-72
2022/03/05 00:58:01;;;;;;;8.70;2.92;;;;;;;2.78;46.15;98814.69;5012523;28;20073;-74
2022/03/05 01:00:27;;;;;;;13.55;3.88;;;;;;;2.79;46.41;98816.31;5010292;28;20057;-73
2022/03/05 01:02:53;;;;;;;10.48;3.50;;;;;;;2.79;46.46;98810.91;4991881;28;20050;-72
2022/03/05 01:05:19;;;;;;;13.75;3.13;;;;;;;2.84;46.50;98809.09;5006281;28;20052;-73
2022/03/05 01:07:46;;;;;;;11.48;3.92;;;;;;;2.79;46.51;98792.00;5006260;28;20108;-74
2022/03/05 01:10:12;;;;;;;14.65;4.10;;;;;;;2.86;46.67;98803.47;5006944;28;20547;-72
2022/03/05 01:12:39;;;;;;;13.50;4.10;;;;;;;2.79;47.18;98816.31;5013200;28;20064;-73
2022/03/05 01:15:07;;;;;;;12.20;4.50;;;;;;;2.73;47.31;98806.50;5009121;28;20049;-72
2022/03/05 01:17:33;;;;;;;16.40;4.60;;;;;;;2.81;47.42;98806.06;5009654;28;20057;-73
2022/03/05 01:19:59;;;;;;;13.23;4.10;;;;;;;2.73;47.90;98793.00;4976083;28;20060;-71
2022/03/05 01:22:26;;;;;;;12.63;4.00;;;;;;;2.76;47.82;98808.72;5008326;28;20250;-72
2022/03/05 01:24:52;;;;;;;12.45;4.28;;;;;;;2.74;48.11;98800.03;5010826;28;20778;-72
2022/03/05 01:27:22;;;;;;;13.45;4.05;;;;;;;2.81;48.05;98793.41;5007124;28;20069;-71
2022/03/05 01:29:48;;;;;;;16.27;3.78;;;;;;;2.82;47.90;98805.03;5009376;28;20251;-73
2022/03/05 01:32:14;;;;;;;12.85;4.20;;;;;;;2.77;48.06;98810.34;5001101;28;20046;-73
2022/03/05 01:34:40;;;;;;;16.60;4.47;;;;;;;2.75;48.37;98801.69;5007451;28;20050;-73
2022/03/05 01:37:07;;;;;;;13.23;4.70;;;;;;;2.71;48.69;98795.16;5001083;28;20100;-73
2022/03/05 01:39:33;;;;;;;18.08;4.82;;;;;;;2.70;48.80;98799.72;4979056;28;20046;-73
2022/03/05 01:42:01;;;;;;;11.98;4.32;;;;;;;2.75;48.93;98802.50;5006241;28;20580;-73
2022/03/05 01:44:27;;;;;;;18.58;4.53;;;;;;;2.75;49.25;98802.50;5009357;28;20045;-72
2022/03/05 01:46:54;;;;;;;12.17;4.07;;;;;;;2.71;49.48;98797.84;5008600;28;20057;-72
2022/03/05 01:49:20;;;;;;;12.90;4.32;;;;;;;2.78;49.41;98799.31;4991784;28;20320;-73
2022/03/05 01:51:46;;;;;;;10.43;3.60;;;;;;;2.71;49.81;98809.44;4995029;28;20112;-73
2022/03/05 01:54:14;;;;;;;11.82;3.50;;;;;;;2.63;49.61;98799.88;5006122;28;20050;-73
2022/03/05 01:56:42;;;;;;;11.02;3.90;;;;;;;2.69;49.73;98806.19;4985490;28;20060;-73
2022/03/05 01:59:09;;;;;;;11.43;3.67;;;;;;;2.82;49.23;98813.13;4977854;28;20050;-73
2022/03/05 02:01:36;;;;;;;10.70;3.63;;;;;;;2.74;49.55;98806.28;4999714;28;20073;-73
2022/03/05 02:04:03;;;;;;;13.00;3.90;;;;;;;2.77;49.48;98799.53;4991892;28;20081;-73
2022/03/05 02:06:29;;;;;;;9.38;3.90;;;;;;;2.78;49.45;98811.97;5013482;28;20049;-74
2022/03/05 02:08:57;;;;;;;13.65;3.63;;;;;;;2.72;49.20;98802.97;5008294;28;20072;-73
2022/03/05 02:11:24;;;;;;;10.32;3.67;;;;;;;2.73;49.15;98810.00;4991301;28;20053;-74
2022/03/05 02:13:50;;;;;;;9.35;3.25;;;;;;;2.72;49.25;98812.97;5009501;28;20169;-74
2022/03/05 02:16:17;;;;;;;14.63;3.53;;;;;;;2.75;49.26;98818.72;5007947;28;20052;-73
2022/03/05 02:18:48;;;;;;;10.18;3.33;;;;;;;2.71;49.38;98814.03;5009117;28;20082;-74
2022/03/05 02:21:16;;;;;;;9.52;3.83;;;;;;;2.84;48.96;98811.81;4990578;28;20045;-72
2022/03/05 02:23:42;;;;;;;11.35;2.60;;;;;;;2.88;48.71;98822.94;5010224;28;20069;-73
2022/03/05 02:26:08;;;;;;;8.43;3.00;;;;;;;2.93;48.54;98816.78;5015351;28;20419;-74
2022/03/05 02:28:36;;;;;;;12.57;3.30;;;;;;;2.98;48.22;98820.41;5013832;28;20136;-76
2022/03/05 02:31:03;;;;;;;7.35;2.80;;;;;;;2.91;48.13;98819.72;4997088;28;20104;-76
2022/03/05 02:33:29;;;;;;;8.32;2.80;;;;;;;2.81;48.32;98819.56;5015539;28;20466;-75
2022/03/05 02:35:56;;;;;;;10.52;2.78;;;;;;;2.96;47.70;98819.00;5015599;28;20064;-75
2022/03/05 02:38:24;;;;;;;7.47;2.40;;;;;;;3.03;47.34;98832.31;5018544;28;20524;-75
2022/03/05 02:40:50;;;;;;;;;;;;;;;2.94;47.15;98818.44;5014831;28;20434;-75
2022/03/05 02:43:17;;;;;;;6.77;2.00;;;;;;;2.83;46.97;98810.16;5014228;28;20224;-75
2022/03/05 02:45:44;;;;;;;8.48;2.10;;;;;;;2.93;46.57;98814.91;5014841;28;20320;-75
2022/03/05 02:48:13;;;;;;;5.37;1.73;;;;;;;2.91;46.04;98814.34;5013564;28;20050;-74
2022/03/05 02:50:41;;;;;;;8.23;2.08;;;;;;;2.90;46.42;98804.59;5014822;28;20057;-74
2022/03/05 02:53:07;;;;;;;28.13;2.53;;;;;;;2.96;46.03;98811.69;5015145;28;20046;-74
2022/03/05 02:55:35;;;;;;;6.10;2.03;;;;;;;2.87;46.35;98812.38;4998525;28;20502;-74
2022/03/05 02:58:01;;;;;;;6.38;1.90;;;;;;;2.94;46.01;98813.03;4996756;28;20467;-72
2022/03/05 03:00:27;;;;;;;5.57;1.70;;;;;;;2.83;46.32;98825.56;4997960;28;20045;-73
2022/03/05 03:02:54;;;;;;;5.45;1.80;;;;;;;2.73;46.35;98830.81;5013964;28;20556;-73
2022/03/05 03:05:21;;;;;;;6.50;2.03;;;;;;;2.67;46.64;98830.75;5015508;28;20413;-74
2022/03/05 03:07:48;;;;;;;5.30;2.00;;;;;;;2.67;46.46;98803.75;5008994;28;20046;-74
2022/03/05 03:10:16;;;;;;;5.70;1.83;;;;;;;2.86;46.39;98826.94;4995756;28;20128;-72
2022/03/05 03:12:43;;;;;;;6.28;2.17;;;;;;;2.84;46.43;98833.41;4997847;28;20148;-73
2022/03/05 03:15:11;;;;;;;;;;;;;;;2.82;46.56;98832.84;5013225;28;20475;-74
2022/03/05 03:17:40;;;;;;;4.95;2.00;;;;;;;2.92;46.42;98815.97;5014430;28;19932;-73
2022/03/05 03:20:07;;;;;;;13.52;2.03;;;;;;;2.84;46.54;98838.81;5015252;28;20100;-73
2022/03/05 03:22:34;;;;;;;5.13;1.73;;;;;;;2.80;46.82;98820.66;5014098;28;20050;-73
2022/03/05 03:25:00;;;;;;;6.82;2.00;;;;;;;2.78;47.06;98812.81;5012520;28;20077;-75
2022/03/05 03:27:27;;;;;;;7.05;1.85;;;;;;;2.84;47.04;98840.69;4997330;28;20057;-74
2022/03/05 03:29:53;;;;;;;16.23;2.10;;;;;;;2.75;47.51;98845.72;5014172;28;20092;-73
2022/03/05 03:32:20;;;;;;;9.87;1.87;;;;;;;2.83;47.34;98839.06;5012990;28;20064;-73
2022/03/05 03:34:46;;;;;;;7.38;2.20;;;;;;;2.72;47.74;98824.56;5006280;28;20313;-74
2022/03/05 03:37:12;;;;;;;5.88;1.88;;;;;;;2.77;47.98;98842.75;4976662;28;20050;-74
2022/03/05 03:39:38;;;;;;;7.60;2.17;;;;;;;2.76;48.38;98849.22;4994032;28;20085;-73
2022/03/05 03:42:05;;;;;;;9.38;2.38;;;;;;;2.70;48.59;98840.22;4993167;28;20049;-72
2022/03/05 03:44:31;;;;;;;6.38;2.25;;;;;;;2.69;48.80;98852.06;5011062;28;20425;-74
2022/03/05 03:46:58;;;;;;;8.95;2.53;;;;;;;2.79;48.55;98857.63;5010806;28;20514;-72
2022/03/05 03:49:24;;;;;;;8.75;2.08;;;;;;;2.79;48.68;98848.72;4986563;28;20045;-74
2022/03/05 03:51:50;;;;;;;5.40;2.05;;;;;;;2.81;48.44;98862.78;5010094;28;20046;-74
2022/03/05 03:54:16;;;;;;;5.90;2.20;;;;;;;2.77;48.44;98856.25;5010367;28;20050;-74
2022/03/05 03:56:43;;;;;;;6.80;2.15;;;;;;;2.66;48.67;98874.16;4993665;28;20077;-74
2022/03/05 03:59:09;;;;;;;6.25;2.10;;;;;;;2.64;48.82;98866.31;5010226;28;20077;-74
2022/03/05 04:01:35;;;;;;;20.90;2.63;;;;;;;2.68;48.53;98863.94;5010714;28;20037;-74
2022/03/05 04:04:02;;;;;;;10.15;3.83;;;;;;;2.69;48.41;98868.28;4992842;28;20081;-74
2022/03/05 04:08:41;;;;;;;6.90;2.15;;;;;;;2.66;48.17;98861.50;5014479;28;20148;-73
2022/03/05 04:09:14;;;;;;;5.97;2.33;;;;;;;2.43;48.60;98848.16;5009680;28;20104;-74
2022/03/05 04:11:41;;;;;;;7.38;2.10;;;;;;;2.69;47.84;98865.56;5010018;28;20146;-74
2022/03/05 04:14:08;;;;;;;6.82;1.95;;;;;;;2.86;47.72;98862.03;4992513;28;20430;-74
2022/03/05 04:16:33;;;;;;;6.35;2.20;;;;;;;2.69;48.00;98873.66;5010046;28;20149;-75
2022/03/05 04:19:00;;;;;;;10.27;2.33;;;;;;;2.66;48.20;98874.16;4974898;28;20570;-74
2022/03/05 04:21:27;;;;;;;6.97;1.90;;;;;;;2.66;48.23;98872.28;5009026;28;20069;-75
2022/03/05 04:23:53;;;;;;;7.82;2.22;;;;;;;2.66;48.12;98869.59;4993230;28;20056;-74
2022/03/05 04:26:19;;;;;;;7.55;2.40;;;;;;;2.69;47.83;98879.91;5002389;28;20049;-75
2022/03/05 04:28:46;;;;;;;6.47;2.20;;;;;;;2.61;48.12;98888.38;5024714;28;20093;-75
2022/03/05 04:31:13;;;;;;;8.93;2.17;;;;;;;2.60;48.18;98885.94;5009911;28;20502;-75
2022/03/05 04:33:39;;;;;;;7.25;2.08;;;;;;;2.62;47.93;98878.44;5009640;28;20053;-74
2022/03/05 04:36:05;;;;;;;10.38;2.30;;;;;;;2.60;48.19;98888.66;4991690;28;20467;-74
2022/03/05 04:38:34;;;;;;;10.38;2.55;;;;;;;2.65;48.08;98896.81;5025791;28;20042;-74
2022/03/05 04:41:00;;;;;;;7.90;2.30;;;;;;;2.65;48.42;98894.13;5010351;28;20054;-75
2022/03/05 04:43:26;;;;;;;7.25;2.08;;;;;;;2.61;48.47;98901.09;5010460;28;20312;-74
2022/03/05 04:45:53;;;;;;;14.02;2.25;;;;;;;2.50;48.86;98906.28;4982494;28;20560;-74
2022/03/05 04:48:19;;;;;;;9.15;2.15;;;;;;;2.53;48.87;98911.19;4989658;28;20448;-76
2022/03/05 04:50:48;;;;;;;9.13;2.30;;;;;;;2.55;48.83;98911.78;4991834;28;20112;-76
2022/03/05 04:53:14;;;;;;;5.68;2.10;;;;;;;2.47;48.95;98908.66;5007145;28;20049;-76
2022/03/05 04:55:42;;;;;;;8.20;2.33;;;;;;;2.54;48.94;98896.66;5007622;28;20096;-75
2022/03/05 04:58:09;;;;;;;;;;;;;;;2.65;48.87;98918.41;5009454;28;20054;-74
2022/03/05 05:00:37;;;;;;;8.02;2.20;;;;;;;2.49;49.22;98922.72;4996762;28;19932;-74
2022/03/05 05:03:03;;;;;;;14.80;2.10;;;;;;;2.43;49.57;98919.13;5009773;28;20529;-74
2022/03/05 05:05:29;;;;;;;8.10;2.28;;;;;;;2.37;49.93;98928.19;4991455;28;20046;-75
2022/03/05 05:07:55;;;;;;;7.57;2.20;;;;;;;2.34;50.02;98932.22;5008465;28;20045;-74
2022/03/05 05:10:22;;;;;;;9.52;2.28;;;;;;;2.34;50.19;98916.00;5017439;28;20077;-75
2022/03/05 05:12:49;;;;;;;6.13;2.13;;;;;;;2.53;50.01;98932.78;4976462;28;20050;-75
2022/03/05 05:15:15;;;;;;;8.27;2.00;;;;;;;2.51;50.35;98931.41;5006508;28;20099;-76
2022/03/05 05:17:41;;;;;;;9.98;2.10;;;;;;;2.58;50.15;98936.66;4976750;28;20065;-75
2022/03/05 05:20:09;;;;;;;11.00;2.50;;;;;;;2.39;50.92;98932.28;5000839;28;20137;-74
2022/03/05 05:22:36;;;;;;;;;;;;;;;2.46;51.17;98934.00;5007752;28;20057;-76
2022/03/05 05:25:04;;;;;;;7.43;2.35;;;;;;;2.46;50.94;98940.25;5008124;28;19961;-74
2022/03/05 05:27:35;;;;;;;7.93;2.42;;;;;;;2.45;51.51;98935.91;4993768;28;20056;-74
2022/03/05 05:30:03;;;;;;;7.03;2.25;;;;;;;2.26;51.58;98922.63;5011100;28;20528;-73
2022/03/05 05:32:30;;;;;;;6.25;2.22;;;;;;;2.34;51.75;98942.16;5007246;28;20069;-73
2022/03/05 05:34:56;;;;;;;6.28;2.38;;;;;;;2.43;51.68;98932.63;4991112;28;20548;-74
2022/03/05 05:37:22;;;;;;;8.57;2.55;;;;;;;2.43;51.67;98939.91;4977667;28;20115;-74
2022/03/05 05:39:49;;;;;;;6.72;2.28;;;;;;;2.40;51.55;98947.41;5009536;28;20520;-75
2022/03/05 05:42:16;;;;;;;7.07;2.20;;;;;;;2.43;51.27;98946.13;4992018;28;20041;-74
2022/03/05 05:44:44;;;;;;;11.68;2.50;;;;;;;2.49;51.14;98949.72;4992737;28;20100;-75
2022/03/05 05:47:11;;;;;;;12.45;2.13;;;;;;;2.46;50.66;98953.72;4993408;28;20050;-76
2022/03/05 05:49:38;;;;;;;6.05;1.95;;;;;;;2.40;50.75;98946.59;4990272;28;20458;-73
2022/03/05 05:52:05;;;;;;;6.00;2.03;;;;;;;2.34;50.58;98952.97;4998159;28;20042;-72
2022/03/05 05:54:31;;;;;;;7.75;1.95;;;;;;;2.37;50.24;98939.81;5009809;28;20058;-73
2022/03/05 05:56:58;;;;;;;7.15;2.00;;;;;;;2.49;49.35;98952.41;5009527;28;20062;-74
2022/03/05 05:59:24;;;;;;;5.20;1.90;;;;;;;2.46;48.74;98950.19;4991858;28;20042;-74
2022/03/05 06:01:50;;;;;;;6.18;1.80;;;;;;;2.64;48.24;98946.47;4986436;28;20613;-74
2022/03/05 06:04:17;;;;;;;10.30;2.03;;;;;;;2.64;47.89;98947.28;5007183;28;20049;-80
2022/03/05 06:06:44;;;;;;;5.82;1.80;;;;;;;2.59;47.67;98946.41;4991473;28;20054;-82
2022/03/05 06:09:10;;;;;;;19.33;3.15;;;;;;;2.54;48.23;98950.63;4991734;28;20050;-80
2022/03/05 06:11:36;;;;;;;10.57;2.00;;;;;;;2.47;48.46;98965.31;5007867;28;20045;-80
2022/03/05 06:14:03;;;;;;;6.18;2.28;;;;;;;2.50;48.53;98965.66;5008731;28;20419;-79
2022/03/05 06:16:29;;;;;;;7.60;2.20;;;;;;;2.35;48.98;98962.69;4977179;28;20558;-81
2022/03/05 06:18:55;;;;;;;6.07;2.20;;;;;;;2.18;49.13;98959.91;4991069;28;20053;-83
2022/03/05 06:21:23;;;;;;;15.57;2.60;;;;;;;2.29;48.94;98960.97;4984118;28;20541;-83
2022/03/05 06:23:49;;;;;;;7.88;2.22;;;;;;;2.29;48.78;98958.25;4975802;28;20061;-82
2022/03/05 06:26:15;;;;;;;6.40;2.00;;;;;;;2.33;48.41;98968.31;5013082;28;20489;-81
2022/03/05 06:28:42;;;;;;;6.68;2.38;;;;;;;2.25;48.40;98963.31;4992820;28;20088;-80
2022/03/05 06:31:08;;;;;;;14.40;3.20;;;;;;;2.35;48.25;98957.28;4983213;28;20080;-80
2022/03/05 06:33:34;;;;;;;7.68;2.55;;;;;;;2.47;47.68;98958.06;4989755;28;20041;-74
2022/03/05 06:36:00;;;;;;;6.90;2.25;;;;;;;2.57;47.30;98962.00;4994829;28;20061;-75
2022/03/05 06:38:27;;;;;;;8.23;2.33;;;;;;;2.67;47.09;98959.47;5011448;28;20042;-74
2022/03/05 06:40:54;;;;;;;6.38;2.60;;;;;;;2.56;47.21;98969.28;5008747;28;20046;-75
2022/03/05 06:43:21;;;;;;;4.72;1.70;;;;;;;2.49;46.95;98969.44;5008993;28;20065;-75
2022/03/05 06:45:48;;;;;;;10.30;2.38;;;;;;;2.53;46.85;98969.78;5010087;28;20057;-76
2022/03/05 06:48:14;;;;;;;8.45;2.55;;;;;;;2.52;46.75;98979.72;5007442;28;20136;-75
2022/03/05 06:50:40;;;;;;;8.55;2.53;;;;;;;2.54;46.56;98976.81;5013582;28;20144;-75
2022/03/05 06:53:07;;;;;;;13.77;3.30;;;;;;;2.60;46.67;98983.91;5008436;28;20085;-74
2022/03/05 06:55:34;;;;;;;13.05;2.88;;;;;;;2.51;46.62;98985.41;4994515;28;20053;-75
2022/03/05 06:58:00;;;;;;;7.83;2.23;;;;;;;2.44;47.13;98992.81;5008898;28;20045;-75
2022/03/05 07:00:26;;;;;;;10.60;2.53;;;;;;;2.45;47.24;98975.53;5009216;28;20327;-74
2022/03/05 07:02:53;;;;;;;9.35;2.50;;;;;;;2.55;47.46;98984.66;5007470;28;20046;-75
2022/03/05 07:05:19;;;;;;;10.80;3.33;;;;;;;2.55;46.93;98967.66;5009117;28;20133;-75
2022/03/05 07:07:45;;;;;;;7.75;3.00;;;;;;;2.69;46.75;98968.97;4988439;28;20073;-74
2022/03/05 07:10:12;;;;;;;14.38;3.00;;;;;;;2.74;46.74;98978.22;5007770;28;20096;-76
2022/03/05 07:12:39;;;;;;;11.88;2.88;;;;;;;2.82;46.60;98985.94;5011428;28;20096;-74
2022/03/05 07:15:07;;;;;;;10.18;2.65;;;;;;;2.81;46.68;98977.00;4994820;28;20046;-74
2022/03/05 07:17:33;;;;;;;7.05;2.83;;;;;;;2.78;46.58;98966.69;5010035;28;20288;-75
2022/03/05 07:19:59;;;;;;;11.57;3.33;;;;;;;2.90;46.20;98972.03;5014039;28;20077;-74
2022/03/05 07:22:25;;;;;;;9.40;3.00;;;;;;;2.92;46.07;98980.69;4994170;28;20050;-76
2022/03/05 07:24:52;;;;;;;11.40;2.97;;;;;;;2.91;46.02;98975.56;5012676;28;20057;-77
2022/03/05 07:27:18;;;;;;;9.52;2.90;;;;;;;3.09;45.61;98985.28;5010351;28;20100;-75
2022/03/05 07:29:46;;;;;;;10.70;3.20;;;;;;;2.80;46.09;98940.28;4986017;28;20061;-77
2022/03/05 07:32:12;;;;;;;24.17;3.53;;;;;;;3.10;45.88;98976.94;5011367;28;20124;-75
2022/03/05 07:34:38;;;;;;;12.63;3.08;;;;;;;3.38;45.43;98960.88;5009499;28;20049;-75
2022/03/05 07:37:05;;;;;;;9.52;3.13;;;;;;;3.55;44.88;98972.47;5010985;28;20060;-73
2022/03/05 07:39:31;;;;;;;9.63;3.00;;;;;;;3.72;44.55;98971.63;5012940;28;20091;-72
2022/03/05 07:41:57;;;;;;;15.77;2.97;;;;;;;3.72;44.33;98965.41;5012631;28;20041;-72
2022/03/05 07:44:23;;;;;;;7.60;2.58;;;;;;;3.78;44.43;98977.91;5012792;28;20109;-72
2022/03/05 07:46:50;;;;;;;7.50;2.55;;;;;;;3.80;43.93;98949.56;5011989;28;20058;-72
2022/03/05 07:49:16;;;;;;;11.87;3.00;;;;;;;3.92;43.92;98965.66;5012635;28;20054;-73
2022/03/05 07:51:42;;;;;;;14.27;2.85;;;;;;;3.90;43.94;98975.91;5016223;28;20087;-72
2022/03/05 07:54:08;;;;;;;10.40;2.95;;;;;;;3.92;44.16;98943.22;5027775;28;20053;-72
2022/03/05 07:56:34;;;;;;;9.30;2.67;;;;;;;4.00;43.46;98974.44;5014756;28;20064;-73
2022/03/05 07:59:00;;;;;;;8.05;3.08;;;;;;;3.93;43.71;98977.31;4995126;28;20065;-73
2022/03/05 08:01:27;;;;;;;11.65;3.08;;;;;;;3.93;43.76;98977.31;4993733;28;20057;-74
2022/03/05 08:03:54;;;;;;;12.07;4.93;;;;;;;3.89;43.70;98962.63;5011983;28;20050;-73
2022/03/05 08:06:20;;;;;;;10.17;3.17;;;;;;;3.97;43.90;98971.13;5012615;28;20060;-71
2022/03/05 08:08:46;;;;;;;9.77;3.35;;;;;;;3.93;43.70;98983.53;4995053;28;20389;-72
2022/03/05 08:11:12;;;;;;;11.40;2.97;;;;;;;3.75;43.84;98975.72;4994656;28;20518;-73
2022/03/05 08:13:39;;;;;;;10.77;3.05;;;;;;;3.76;43.82;98982.75;5012508;28;20062;-73
2022/03/05 08:16:05;;;;;;;15.05;3.15;;;;;;;3.68;43.49;98986.72;4994163;28;20056;-73
2022/03/05 08:18:31;;;;;;;7.78;2.72;;;;;;;3.66;43.66;98976.13;4994903;28;20046;-73
2022/03/05 08:20:58;;;;;;;10.48;3.17;;;;;;;3.68;43.33;98984.84;5010394;28;20149;-74
2022/03/05 08:23:24;;;;;;;9.43;2.55;;;;;;;3.81;43.14;98985.53;4993677;28;20046;-74
2022/03/05 08:25:51;;;;;;;14.23;3.15;;;;;;;3.75;43.06;98987.38;5010538;28;20426;-74
2022/03/05 08:28:18;;;;;;;9.85;2.97;;;;;;;3.69;43.21;98991.88;4994820;28;20140;-74
2022/03/05 08:30:44;;;;;;;14.30;3.42;;;;;;;3.74;43.08;98993.00;5012176;28;20111;-73
2022/03/05 08:33:10;;;;;;;9.95;3.25;;;;;;;3.62;43.05;99001.25;5010119;28;20453;-73
2022/03/05 08:35:36;;;;;;;13.77;3.53;;;;;;;3.66;43.43;98994.25;4975236;28;20080;-73
2022/03/05 08:38:03;;;;;;;14.10;3.17;;;;;;;3.50;43.54;98985.94;5011871;28;20049;-75
2022/03/05 08:40:29;;;;;;;11.60;3.90;;;;;;;3.53;43.42;98993.53;5011062;28;20050;-74
2022/03/05 08:42:56;;;;;;;13.52;3.00;;;;;;;3.74;43.16;98990.31;5010380;28;20524;-72
2022/03/05 08:45:22;;;;;;;8.10;2.90;;;;;;;3.93;42.81;98980.81;5008489;28;20042;-70
2022/03/05 08:47:48;;;;;;;17.20;3.10;;;;;;;4.33;42.05;98984.28;5014331;28;20079;-73
2022/03/05 08:50:14;;;;;;;7.65;2.72;;;;;;;4.66;41.41;98981.66;5008912;28;20486;-72
2022/03/05 08:52:41;;;;;;;12.77;2.65;;;;;;;4.94;41.12;98996.00;4998506;28;20042;-71
2022/03/05 08:55:11;;;;;;;12.02;2.88;;;;;;;5.08;40.93;98988.25;5010990;28;20197;-72
2022/03/05 08:57:39;;;;;;;10.63;3.08;;;;;;;5.18;40.54;98976.66;5012116;28;20262;-72
2022/03/05 09:00:09;;;;;;;21.73;3.13;;;;;;;4.95;40.23;98960.50;4993434;28;20100;-70
2022/03/05 09:02:35;;;;;;;10.57;3.13;;;;;;;5.00;40.07;98984.13;5010469;28;20050;-72
2022/03/05 09:05:02;;;;;;;11.32;2.85;;;;;;;4.98;40.31;98997.09;5004107;28;20532;-72
2022/03/05 09:07:29;;;;;;;14.80;3.20;;;;;;;4.80;40.62;98995.59;5008611;28;20461;-75
2022/03/05 09:09:55;;;;;;;11.57;3.13;;;;;;;4.89;40.54;99004.06;4989087;28;20060;-74
2022/03/05 09:12:22;;;;;;;16.35;3.55;;;;;;;4.94;40.29;99001.41;5005991;28;20452;-74
2022/03/05 09:14:48;;;;;;;11.13;3.47;;;;;;;4.92;40.24;99007.09;5016850;28;20049;-73
2022/03/05 09:17:14;;;;;;;17.13;3.22;;;;;;;4.76;40.37;99013.44;5007130;28;20419;-73
2022/03/05 09:19:41;;;;;;;13.77;3.10;;;;;;;4.65;40.34;99021.44;4992906;28;20058;-73
2022/03/05 09:22:09;;;;;;;12.98;2.88;;;;;;;4.66;40.50;99014.94;4993491;28;20058;-72
2022/03/05 09:24:35;;;;;;;7.63;2.53;;;;;;;5.20;39.78;99013.28;5003281;28;20133;-72
2022/03/05 09:27:01;;;;;;;9.98;2.83;;;;;;;5.26;39.44;99008.72;4993919;28;20457;-72
2022/03/05 09:29:28;;;;;;;10.35;2.72;;;;;;;5.40;39.34;99014.53;4991328;28;20132;-73
2022/03/05 09:31:55;;;;;;;8.65;2.42;;;;;;;5.29;39.41;99019.06;5016811;28;20053;-74
2022/03/05 09:34:21;;;;;;;16.23;2.65;;;;;;;5.09;39.69;99038.66;5001223;28;20085;-75
2022/03/05 09:36:47;;;;;;;10.57;2.83;;;;;;;5.04;39.80;99031.28;5009657;28;20061;-73
2022/03/05 09:39:14;;;;;;;10.88;2.60;;;;;;;4.93;39.77;99024.97;4999090;28;20049;-73
2022/03/05 09:41:41;;;;;;;16.40;3.47;;;;;;;4.91;39.88;99021.69;5005607;28;20533;-71
2022/03/05 09:44:07;;;;;;;7.45;2.60;;;;;;;4.61;40.35;99020.31;4993771;28;20309;-72
2022/03/05 09:46:34;;;;;;;11.18;2.63;;;;;;;4.52;40.47;99030.78;4993451;28;20046;-72
2022/03/05 09:49:02;;;;;;;10.30;2.63;;;;;;;4.52;40.66;99035.38;4974095;28;20050;-73
2022/03/05 09:51:28;;;;;;;;;;;;;;;4.49;40.63;99036.72;5009078;28;20128;-74
2022/03/05 09:53:55;;;;;;;12.85;3.33;;;;;;;4.29;40.92;99042.69;4997080;28;19926;-74
2022/03/05 09:56:22;;;;;;;15.38;2.97;;;;;;;4.32;40.93;99044.88;5007845;28;20042;-74
2022/03/05 09:58:49;;;;;;;13.38;2.85;;;;;;;4.37;41.23;99054.97;5007622;28;20414;-73
2022/03/05 10:01:16;;;;;;;17.02;3.42;;;;;;;4.23;41.12;99047.22;4991442;28;20057;-73
2022/03/05 10:03:44;;;;;;;8.10;3.00;;;;;;;4.14;41.26;99028.97;5010553;28;20056;-74
2022/03/05 10:06:16;;;;;;;9.43;3.03;;;;;;;4.28;41.39;99048.34;5009363;28;20050;-72
2022/03/05 10:08:42;;;;;;;18.25;3.28;;;;;;;4.37;41.25;99041.44;5012347;28;20506;-72
2022/03/05 10:11:09;;;;;;;9.00;2.97;;;;;;;4.27;41.22;99055.66;4992533;28;20058;-73
2022/03/05 10:13:36;;;;;;;9.07;2.50;;;;;;;4.18;41.44;99051.75;5010428;28;20139;-80
2022/03/05 10:16:06;;;;;;;9.90;2.90;;;;;;;4.26;41.46;99054.81;5024733;28;20047;-75
2022/03/05 10:18:33;;;;;;;10.40;3.42;;;;;;;4.19;41.42;99048.81;5012716;28;20052;-74
2022/03/05 10:21:03;;;;;;;15.82;3.15;;;;;;;4.26;41.54;99056.72;5009560;28;20497;-75
2022/03/05 10:23:33;;;;;;;11.32;2.97;;;;;;;4.23;41.69;99049.94;4992413;28;20133;-74
2022/03/05 10:26:05;;;;;;;9.88;2.53;;;;;;;4.12;41.88;99045.44;5007535;28;20561;-74
2022/03/05 10:28:31;;;;;;;6.78;2.47;;;;;;;4.05;42.15;99055.63;5015596;28;20072;-76
2022/03/05 10:31:03;;;;;;;10.63;2.95;;;;;;;4.14;41.90;99056.03;4966663;28;20402;-75
2022/03/05 10:33:31;;;;;;;22.75;2.70;;;;;;;4.30;41.60;99065.19;4993579;28;20070;-74
2022/03/05 10:35:59;;;;;;;9.82;3.42;;;;;;;4.39;41.30;99069.06;4991920;28;20054;-76
2022/03/05 10:38:48;;;;;;;12.77;3.03;;;;;;;4.31;41.53;99062.19;5008325;28;20076;-76
2022/03/05 10:41:17;;;;;;;10.88;2.85;;;;;;;4.18;41.52;99038.22;4991564;28;20553;-75
2022/03/05 10:43:44;;;;;;;10.13;2.65;;;;;;;4.14;41.89;99048.75;4992175;28;20053;-75
2022/03/05 10:46:10;;;;;;;14.13;3.30;;;;;;;4.03;42.08;99060.50;5011664;28;20486;-77
2022/03/05 10:48:40;;;;;;;11.48;3.00;;;;;;;3.94;42.18;99043.88;5011782;28;20141;-74
2022/03/05 10:51:11;;;;;;;8.70;3.22;;;;;;;3.98;42.24;99055.81;5013473;28;20505;-73
2022/03/05 10:53:42;;;;;;;7.70;2.80;;;;;;;4.10;42.14;99061.94;4995529;28;20049;-72
2022/03/05 10:56:27;;;;;;;12.35;3.03;;;;;;;4.12;42.41;99067.09;4995102;28;20141;-71
2022/03/05 10:59:05;;;;;;;12.15;2.67;;;;;;;4.04;42.55;99060.22;5013462;28;20054;-71
2022/03/05 11:01:33;;;;;;;10.52;3.22;;;;;;;4.09;42.33;99046.78;5011863;28;20042;-70
2022/03/05 11:03:59;;;;;;;7.60;2.80;;;;;;;4.10;42.46;99064.66;5013031;28;20092;-70
2022/03/05 11:06:27;;;;;;;18.08;3.13;;;;;;;4.16;42.38;99064.72;5010945;28;20049;-72
2022/03/05 11:08:53;;;;;;;10.77;3.45;;;;;;;4.20;42.39;99053.13;4996240;28;20046;-70
2022/03/05 11:11:21;;;;;;;14.23;3.15;;;;;;;4.32;42.57;99058.41;5007653;28;20582;-69
2022/03/05 11:13:48;;;;;;;17.00;3.08;;;;;;;4.12;42.43;99048.16;4998290;28;20045;-75
2022/03/05 11:16:15;;;;;;;9.07;3.30;;;;;;;4.14;42.73;99061.44;4995367;28;20057;-72
2022/03/05 11:18:42;;;;;;;13.88;3.55;;;;;;;4.23;42.38;99066.16;4994477;28;20058;-71
2022/03/05 11:21:10;;;;;;;7.63;2.88;;;;;;;4.13;42.50;99068.72;5012427;28;20049;-71
2022/03/05 11:23:38;;;;;;;14.55;3.30;;;;;;;4.08;42.64;99057.84;4993407;28;20050;-72
2022/03/05 11:26:07;;;;;;;11.82;3.10;;;;;;;3.95;42.60;99070.66;4992490;28;20050;-72
2022/03/05 11:28:36;;;;;;;10.75;2.90;;;;;;;3.92;43.03;99073.06;5017039;28;20049;-72
2022/03/05 11:31:15;;;;;;;12.00;3.25;;;;;;;3.93;42.78;99072.00;5011733;28;20061;-72
2022/03/05 11:33:43;;;;;;;9.80;3.15;;;;;;;3.94;42.75;99066.31;5012135;28;20053;-72
2022/03/05 11:36:24;;;;;;;8.57;3.22;;;;;;;4.12;42.32;99072.50;5012436;28;20065;-70
2022/03/05 11:39:09;;;;;;;10.10;3.00;;;;;;;4.07;42.49;99062.44;5010221;28;20177;-73